Time;durP1;ratioP1;P1;durP2;ratioP2;P2;SDS_P1;SDS_P2;PMS_P1;PMS_P2;Temp;Humidity;BMP_temperature;BMP_pressure;BME280_temperature;BME280_humidity;BME280_pressure;Samples;Min_cycle;Max_cycle;Signal;HPM_P1;HPM_P2
2023/08/11 00:02:12;;;;;;;2.80;2.37;;;;;;;;;;5061903;28;20219;-73
2023/08/11 00:05:18;;;;;;;4.67;2.60;;;;;;;;;;5073212;28;20223;-73
2023/08/11 00:08:22;;;;;;;5.67;2.47;;;;;;;;;;5061575;28;20199;-73
2023/08/11 00:11:27;;;;;;;4.07;2.47;;;;;;;;;;5061750;28;20629;-73
2023/08/11 00:14:31;;;;;;;3.83;2.40;;;;;;;;;;5061393;28;20171;-73
2023/08/11 00:17:35;;;;;;;6.43;2.20;;;;;;;;;;5061389;28;20176;-73
2023/08/11 00:20:39;;;;;;;3.37;2.47;;;;;;;;;;5073776;28;20218;-73
2023/08/11 00:23:43;;;;;;;2.73;2.50;;;;;;;;;;5073848;28;20184;-73
2023/08/11 00:26:48;;;;;;;3.20;2.30;;;;;;;;;;5073716;28;20203;-73
2023/08/11 00:29:54;;;;;;;4.30;2.37;;;;;;;;;;5061433;28;20544;-73
2023/08/11 00:32:58;;;;;;;3.57;2.53;;;;;;;;;;5061658;28;20175;-73
2023/08/11 00:36:02;;;;;;;2.30;2.10;;;;;;;;;;5073589;28;20191;-73
2023/08/11 00:39:07;;;;;;;4.87;2.10;;;;;;;;;;5073556;28;20527;-73
2023/08/11 00:42:11;;;;;;;2.73;2.30;;;;;;;;;;5049558;28;20682;-73
2023/08/11 00:45:16;;;;;;;3.00;2.50;;;;;;;;;;5060863;28;20199;-73
2023/08/11 00:48:20;;;;;;;3.87;2.67;;;;;;;;;;5061202;28;20179;-73
2023/08/11 00:51:25;;;;;;;5.80;2.77;;;;;;;;;;5060726;28;20215;-73
2023/08/11 00:54:30;;;;;;;5.43;2.47;;;;;;;;;;5060857;28;20664;-73
2023/08/11 00:57:36;;;;;;;6.13;2.93;;;;;;;;;;5073421;28;20176;-73
2023/08/11 01:00:40;;;;;;;3.20;2.50;;;;;;;;;;5060807;28;20211;-73
2023/08/11 01:03:47;;;;;;;2.70;2.50;;;;;;;;;;5061120;28;20179;-73
2023/08/11 01:07:05;;;;;;;7.20;2.60;;;;;;;;;;5060610;28;20219;-73
2023/08/11 01:10:43;;;;;;;3.27;2.70;;;;;;;;;;5060711;28;20192;-73
2023/08/11 01:14:09;;;;;;;2.77;2.40;;;;;;;;;;5078831;28;20523;-73
2023/08/11 01:17:16;;;;;;;5.30;2.70;;;;;;;;;;5062999;28;20627;-73
2023/08/11 01:20:20;;;;;;;5.57;2.60;;;;;;;;;;5064946;28;20188;-73
2023/08/11 01:23:25;;;;;;;3.37;2.53;;;;;;;;;;5076171;28;20183;-73
2023/08/11 01:26:30;;;;;;;4.00;2.50;;;;;;;;;;5053356;28;20215;-73
2023/08/11 01:29:34;;;;;;;2.50;2.13;;;;;;;;;;5077051;28;20183;-73
2023/08/11 01:32:38;;;;;;;2.77;2.47;;;;;;;;;;5053245;28;20214;-73
2023/08/11 01:35:42;;;;;;;4.87;2.63;;;;;;;;;;5076235;28;20167;-73
2023/08/11 01:38:46;;;;;;;2.83;2.13;;;;;;;;;;5064408;28;20176;-73
2023/08/11 01:41:50;;;;;;;4.70;2.40;;;;;;;;;;5064177;28;20240;-73
2023/08/11 01:44:54;;;;;;;4.47;2.30;;;;;;;;;;5053052;28;20183;-73
2023/08/11 01:48:00;;;;;;;3.23;2.43;;;;;;;;;;5075714;28;20183;-73
2023/08/11 01:51:07;;;;;;;4.43;2.43;;;;;;;;;;5064004;28;20219;-73
2023/08/11 01:54:11;;;;;;;5.03;2.87;;;;;;;;;;5076668;28;20180;-73
2023/08/11 01:57:16;;;;;;;5.00;2.67;;;;;;;;;;5052776;28;20172;-73
2023/08/11 02:00:21;;;;;;;4.53;2.50;;;;;;;;;;5052806;28;20179;-73
2023/08/11 02:03:24;;;;;;;3.03;2.40;;;;;;;;;;5064279;28;20188;-73
2023/08/11 02:06:30;;;;;;;3.20;2.90;;;;;;;;;;5052228;28;20222;-73
2023/08/11 02:09:33;;;;;;;3.60;3.27;;;;;;;;;;5063857;28;20199;-73
2023/08/11 02:12:41;;;;;;;3.50;3.03;;;;;;;;;;5052335;28;20211;-73
2023/08/11 02:15:46;;;;;;;5.43;3.30;;;;;;;;;;5064247;28;20176;-73
2023/08/11 02:18:50;;;;;;;3.07;2.50;;;;;;;;;;5063678;28;20179;-73
2023/08/11 02:21:55;;;;;;;4.10;2.57;;;;;;;;;;5052160;28;20215;-73
2023/08/11 02:24:58;;;;;;;4.20;2.87;;;;;;;;;;5063795;28;20179;-73
2023/08/11 02:28:04;;;;;;;3.10;2.80;;;;;;;;;;5051498;28;20650;-73
2023/08/11 02:31:09;;;;;;;3.27;2.67;;;;;;;;;;5063321;28;20219;-73
2023/08/11 02:34:16;;;;;;;3.77;2.97;;;;;;;;;;5052056;28;20195;-73
2023/08/11 02:37:21;;;;;;;2.97;2.67;;;;;;;;;;5052013;28;20175;-73
2023/08/11 02:40:26;;;;;;;4.87;2.53;;;;;;;;;;5063412;28;20638;-73
2023/08/11 02:43:31;;;;;;;3.83;2.83;;;;;;;;;;5075499;28;20183;-73
2023/08/11 02:46:35;;;;;;;3.10;2.80;;;;;;;;;;5051690;28;20542;-73
2023/08/11 02:49:39;;;;;;;4.63;2.87;;;;;;;;;;5062986;28;20184;-73
2023/08/11 02:52:43;;;;;;;4.23;2.70;;;;;;;;;;5062879;28;20211;-73
2023/08/11 02:55:48;;;;;;;3.17;2.83;;;;;;;;;;5063495;28;20180;-73
2023/08/11 02:58:52;;;;;;;3.43;3.00;;;;;;;;;;5063237;28;20626;-73
2023/08/11 03:01:56;;;;;;;3.27;2.93;;;;;;;;;;5062815;28;20555;-73
2023/08/11 03:05:00;;;;;;;5.13;2.90;;;;;;;;;;5051439;28;20203;-73
2023/08/11 03:08:04;;;;;;;4.80;3.07;;;;;;;;;;5062600;28;20701;-73
2023/08/11 03:11:09;;;;;;;5.03;3.03;;;;;;;;;;5063001;28;20571;-73
2023/08/11 03:14:13;;;;;;;3.23;2.60;;;;;;;;;;5051679;28;20171;-73
2023/08/11 03:17:17;;;;;;;2.60;2.40;;;;;;;;;;5062613;28;20527;-73
2023/08/11 03:20:21;;;;;;;5.17;3.00;;;;;;;;;;5062667;28;20187;-73
2023/08/11 03:23:27;;;;;;;4.23;2.90;;;;;;;;;;5062337;28;20175;-73
2023/08/11 03:26:32;;;;;;;4.57;2.50;;;;;;;;;;5062602;28;20203;-73
2023/08/11 03:29:39;;;;;;;2.83;2.53;;;;;;;;;;5062835;28;20183;-73
2023/08/11 03:32:42;;;;;;;4.03;2.63;;;;;;;;;;5062124;28;20219;-73
2023/08/11 03:35:48;;;;;;;3.53;2.70;;;;;;;;;;5062727;28;20622;-73
2023/08/11 03:38:52;;;;;;;3.40;2.67;;;;;;;;;;5050508;28;20195;-73
2023/08/11 03:41:56;;;;;;;4.43;3.00;;;;;;;;;;5050044;28;20211;-73
2023/08/11 03:45:01;;;;;;;5.33;2.50;;;;;;;;;;5062099;28;20171;-73
2023/08/11 03:48:06;;;;;;;4.63;3.37;;;;;;;;;;5061937;28;20204;-73
2023/08/11 03:51:09;;;;;;;3.80;3.10;;;;;;;;;;5050703;28;20215;-73
2023/08/11 03:54:13;;;;;;;4.37;3.20;;;;;;;;;;5062173;28;20531;-73
2023/08/11 03:57:18;;;;;;;3.57;3.10;;;;;;;;;;5061745;28;20538;-73
2023/08/11 04:00:23;;;;;;;4.70;3.10;;;;;;;;;;5050266;28;20543;-73
2023/08/11 04:03:37;;;;;;;5.13;3.20;;;;;;;;;;5061734;28;20180;-73
2023/08/11 04:06:41;;;;;;;3.70;3.23;;;;;;;;;;5062062;28;20223;-73
2023/08/11 04:09:46;;;;;;;4.13;3.10;;;;;;;;;;5049685;22;20228;-74
2023/08/11 04:12:50;;;;;;;3.90;3.30;;;;;;;;;;4993914;28;20645;-74
2023/08/11 04:15:55;;;;;;;9.43;3.97;;;;;;;;;;4993522;28;20175;-74
2023/08/11 04:18:59;;;;;;;8.77;3.40;;;;;;;;;;4982679;28;20621;-73
2023/08/11 04:22:05;;;;;;;5.00;3.37;;;;;;;;;;4993182;28;20213;-74
2023/08/11 04:25:11;;;;;;;4.87;3.60;;;;;;;;;;4993420;28;20186;-74
2023/08/11 04:28:18;;;;;;;5.47;3.53;;;;;;;;;;4993446;28;20202;-74
2023/08/11 04:31:22;;;;;;;8.03;3.67;;;;;;;;;;4994171;28;20569;-74
2023/08/11 04:34:26;;;;;;;7.63;3.13;;;;;;;;;;4993308;28;20648;-74
2023/08/11 04:37:31;;;;;;;7.50;3.17;;;;;;;;;;4994128;28;20198;-73
2023/08/11 04:40:35;;;;;;;6.73;3.20;;;;;;;;;;4994122;28;20198;-74
2023/08/11 04:43:39;;;;;;;4.07;3.13;;;;;;;;;;4993530;28;20174;-74
2023/08/11 04:46:44;;;;;;;4.30;3.40;;;;;;;;;;4981911;28;20210;-74
2023/08/11 04:49:49;;;;;;;4.17;2.87;;;;;;;;;;4993097;28;20634;-73
2023/08/11 04:52:54;;;;;;;5.00;3.17;;;;;;;;;;4992701;28;20186;-74
2023/08/11 04:55:58;;;;;;;5.73;3.40;;;;;;;;;;4993193;28;20179;-75
2023/08/11 04:59:03;;;;;;;5.77;3.03;;;;;;;;;;4992861;28;20206;-74
2023/08/11 05:02:07;;;;;;;3.37;3.00;;;;;;;;;;4992817;28;20553;-74
2023/08/11 05:05:12;;;;;;;6.07;3.43;;;;;;;;;;4993145;28;20269;-74
2023/08/11 05:08:18;;;;;;;4.80;3.30;;;;;;;;;;4993472;28;20222;-74
2023/08/11 05:11:22;;;;;;;6.07;2.97;;;;;;;;;;4992694;28;20534;-74
2023/08/11 05:14:26;;;;;;;4.60;2.80;;;;;;;;;;4993832;28;20201;-74
2023/08/11 05:17:31;;;;;;;3.73;3.03;;;;;;;;;;4993511;28;20182;-75
2023/08/11 05:20:36;;;;;;;5.63;3.00;;;;;;;;;;4993937;28;20182;-75
2023/08/11 05:23:40;;;;;;;4.13;3.00;;;;;;;;;;4981457;28;20202;-75
2023/08/11 05:26:44;;;;;;;5.60;3.53;;;;;;;;;;4992807;28;20198;-75
2023/08/11 05:29:49;;;;;;;6.30;3.70;;;;;;;;;;4993384;28;20193;-75
2023/08/11 05:32:54;;;;;;;9.30;3.47;;;;;;;;;;4994038;28;20205;-76
2023/08/11 05:35:58;;;;;;;9.33;3.97;;;;;;;;;;4992905;28;20649;-75
2023/08/11 05:39:03;;;;;;;7.53;3.53;;;;;;;;;;4993650;28;20178;-75
2023/08/11 05:42:08;;;;;;;9.80;3.70;;;;;;;;;;4993297;28;20214;-75
2023/08/11 05:45:12;;;;;;;4.87;3.47;;;;;;;;;;4993384;28;20637;-74
2023/08/11 05:48:16;;;;;;;6.67;4.10;;;;;;;;;;4992403;28;20201;-75
2023/08/11 05:51:20;;;;;;;4.30;3.90;;;;;;;;;;4992526;28;20218;-75
2023/08/11 05:54:25;;;;;;;4.70;3.77;;;;;;;;;;4993311;28;20178;-75
2023/08/11 05:57:29;;;;;;;4.17;3.13;;;;;;;;;;5003618;28;20194;-75
2023/08/11 06:00:33;;;;;;;3.50;3.20;;;;;;;;;;4993152;28;20202;-75
2023/08/11 06:03:37;;;;;;;3.90;3.50;;;;;;;;;;4993369;28;20178;-74
2023/08/11 06:06:42;;;;;;;4.03;3.33;;;;;;;;;;4996751;28;20178;-74
2023/08/11 06:09:46;;;;;;;4.17;3.40;;;;;;;;;;4995836;28;20205;-74
2023/08/11 06:12:50;;;;;;;3.90;3.50;;;;;;;;;;4996719;28;20185;-75
2023/08/11 06:15:54;;;;;;;8.63;3.20;;;;;;;;;;4996054;28;20518;-75
2023/08/11 06:18:58;;;;;;;3.50;3.20;;;;;;;;;;4996649;28;20174;-74
2023/08/11 06:22:03;;;;;;;6.00;3.80;;;;;;;;;;4996546;28;20221;-75
2023/08/11 06:25:07;;;;;;;3.97;3.30;;;;;;;;;;4995661;28;20186;-75
2023/08/11 06:28:11;;;;;;;4.27;3.70;;;;;;;;;;4996337;28;20206;-75
2023/08/11 06:31:19;;;;;;;5.00;3.40;;;;;;;;;;4996335;28;20217;-75
2023/08/11 06:34:23;;;;;;;3.93;3.50;;;;;;;;;;4995632;28;20178;-75
2023/08/11 06:37:27;;;;;;;7.07;3.80;;;;;;;;;;4996169;28;20194;-75
2023/08/11 06:40:31;;;;;;;4.03;3.27;;;;;;;;;;4995259;28;20198;-75
2023/08/11 06:43:35;;;;;;;4.43;3.83;;;;;;;;;;4996168;28;20178;-75
2023/08/11 06:46:39;;;;;;;6.13;3.50;;;;;;;;;;4996094;28;20178;-75
2023/08/11 06:49:44;;;;;;;5.53;3.63;;;;;;;;;;4995978;28;20190;-75
2023/08/11 06:52:48;;;;;;;5.63;4.13;;;;;;;;;;4995098;28;20178;-75
2023/08/11 06:55:52;;;;;;;4.40;3.70;;;;;;;;;;4984018;28;20182;-75
2023/08/11 06:58:56;;;;;;;5.53;4.13;;;;;;;;;;4995076;28;20526;-75
2023/08/11 07:02:00;;;;;;;8.23;4.20;;;;;;;;;;5006199;28;20209;-75
2023/08/11 07:05:04;;;;;;;5.93;4.00;;;;;;;;;;4995736;28;20178;-75
2023/08/11 07:08:08;;;;;;;9.53;4.00;;;;;;;;;;4995505;28;20588;-75
2023/08/11 07:11:13;;;;;;;7.77;3.60;;;;;;;;;;4995536;28;20225;-75
2023/08/11 07:14:16;;;;;;;5.00;3.73;;;;;;;;;;4994487;28;20182;-75
2023/08/11 07:17:20;;;;;;;5.30;3.33;;;;;;;;;;4994726;28;20186;-75
2023/08/11 07:20:25;;;;;;;4.47;3.33;;;;;;;;;;4993928;28;20182;-76
2023/08/11 07:23:29;;;;;;;4.47;3.50;;;;;;;;;;4993397;28;20202;-75
2023/08/11 07:26:33;;;;;;;4.07;3.23;;;;;;;;;;4994473;28;20204;-75
2023/08/11 07:29:38;;;;;;;3.87;3.20;;;;;;;;;;5005420;28;20637;-75
2023/08/11 07:32:42;;;;;;;4.57;3.40;;;;;;;;;;4975861;28;20701;-74
2023/08/11 07:35:46;;;;;;;4.17;3.73;;;;;;;;;;4975141;28;20191;-71
2023/08/11 07:38:51;;;;;;;4.70;3.17;;;;;;;;;;4975447;28;20520;-74
2023/08/11 07:42:02;;;;;;;5.53;3.10;;;;;;;;;;4975317;28;20214;-71
2023/08/11 07:45:07;;;;;;;3.20;2.90;;;;;;;;;;4975766;28;20183;-75
2023/08/11 07:48:11;;;;;;;6.43;3.40;;;;;;;;;;4975629;28;20203;-72
2023/08/11 07:51:15;;;;;;;6.60;3.03;;;;;;;;;;4994579;28;20218;-72
2023/08/11 07:54:19;;;;;;;6.13;3.17;;;;;;;;;;4984092;28;20198;-73
2023/08/11 07:57:23;;;;;;;4.00;3.10;;;;;;;;;;4994740;28;20190;-75
2023/08/11 08:00:28;;;;;;;4.17;2.87;;;;;;;;;;4994598;28;20174;-75
2023/08/11 08:03:32;;;;;;;3.97;3.10;;;;;;;;;;4994698;28;20515;-73
2023/08/11 08:06:43;;;;;;;3.67;2.70;;;;;;;;;;4994628;28;20178;-74
2023/08/11 08:09:47;;;;;;;3.20;2.77;;;;;;;;;;4993656;28;20206;-75
2023/08/11 08:12:51;;;;;;;4.23;2.73;;;;;;;;;;4994454;28;20669;-73
2023/08/11 08:15:55;;;;;;;3.53;2.60;;;;;;;;;;4993611;28;20504;-73
2023/08/11 08:18:59;;;;;;;5.53;2.40;;;;;;;;;;4993567;28;20180;-73
2023/08/11 08:22:04;;;;;;;3.87;2.50;;;;;;;;;;4994387;28;20225;-73
2023/08/11 08:25:08;;;;;;;8.57;2.60;;;;;;;;;;4993976;28;20204;-73
2023/08/11 08:28:14;;;;;;;5.88;2.10;;;;;;;;;;4993878;28;20206;-73
2023/08/11 08:31:18;;;;;;;7.43;1.95;;;;;;;;;;4991793;28;20221;-73
2023/08/11 08:34:22;;;;;;;3.80;2.08;;;;;;;;;;5004524;28;20192;-74
2023/08/11 08:37:28;;;;;;;2.53;2.33;;;;;;;;;;4994027;28;20181;-73
2023/08/11 08:40:34;;;;;;;2.72;2.20;;;;;;;;;;4994770;28;20179;-74
2023/08/11 08:43:38;;;;;;;2.88;2.30;;;;;;;;;;4993266;28;20185;-73
2023/08/11 08:46:42;;;;;;;5.30;2.60;;;;;;;;;;4993998;28;20186;-73
2023/08/11 08:49:48;;;;;;;2.33;2.13;;;;;;;;;;4993910;28;20550;-73
2023/08/11 08:52:53;;;;;;;3.45;2.20;;;;;;;;;;4993973;28;20177;-73
2023/08/11 08:55:58;;;;;;;2.38;2.17;;;;;;;;;;4993061;28;20177;-73
2023/08/11 08:59:02;;;;;;;2.42;2.20;;;;;;;;;;5004227;28;20522;-73
2023/08/11 09:02:07;;;;;;;3.10;2.10;;;;;;;;;;4993727;28;20213;-73
2023/08/11 09:05:12;;;;;;;2.40;2.20;;;;;;;;;;4993740;28;20183;-73
2023/08/11 09:08:16;;;;;;;2.22;2.03;;;;;;;;;;4993557;28;20217;-73
2023/08/11 09:11:21;;;;;;;2.65;2.30;;;;;;;;;;4993566;28;20218;-73
2023/08/11 09:14:27;;;;;;;3.58;2.03;;;;;;;;;;4993688;28;20182;-73
2023/08/11 09:17:31;;;;;;;2.38;2.13;;;;;;;;;;4993587;28;20179;-73
2023/08/11 09:20:36;;;;;;;4.43;2.42;;;;;;;;;;4993504;28;20200;-73
2023/08/11 09:23:43;;;;;;;4.57;2.00;;;;;;;;;;4993560;28;20179;-73
2023/08/11 09:26:50;;;;;;;2.53;2.10;;;;;;;;;;4993524;28;20178;-73
2023/08/11 09:29:55;;;;;;;2.42;2.22;;;;;;;;;;4993359;28;20214;-73
2023/08/11 09:33:01;;;;;;;3.63;2.05;;;;;;;;;;4993473;28;20186;-73
2023/08/11 09:36:05;;;;;;;3.25;2.17;;;;;;;;;;4993492;28;20190;-73
2023/08/11 09:39:10;;;;;;;3.30;1.90;;;;;;;;;;4996126;28;20179;-72
2023/08/11 09:42:16;;;;;;;2.78;1.95;;;;;;;;;;4997188;28;20218;-72
2023/08/11 09:45:21;;;;;;;3.53;2.28;;;;;;;;;;4997178;28;20194;-72
2023/08/11 09:48:26;;;;;;;3.15;2.08;;;;;;;;;;4997064;28;20620;-73
2023/08/11 09:51:33;;;;;;;2.47;2.00;;;;;;;;;;4996209;28;20680;-73
2023/08/11 09:54:41;;;;;;;2.75;1.77;;;;;;;;;;4997118;28;20178;-73
2023/08/11 09:57:47;;;;;;;1.92;1.73;;;;;;;;;;4997045;28;20524;-73
2023/08/11 10:00:52;;;;;;;2.08;1.85;;;;;;;;;;4997187;28;20213;-74
2023/08/11 10:04:00;;;;;;;2.25;1.90;;;;;;;;;;4997027;28;20202;-73
2023/08/11 10:07:10;;;;;;;2.03;1.83;;;;;;;;;;4996805;28;20202;-73
2023/08/11 10:10:17;;;;;;;2.47;1.90;;;;;;;;;;4995800;28;20329;-73
2023/08/11 10:13:26;;;;;;;4.28;2.00;;;;;;;;;;5001052;28;20197;-73
2023/08/11 10:16:31;;;;;;;3.33;1.75;;;;;;;;;;4999960;28;20187;-73
2023/08/11 10:19:36;;;;;;;3.33;2.33;;;;;;;;;;5007143;28;20197;-73
2023/08/11 10:22:41;;;;;;;4.35;2.28;;;;;;;;;;5005276;28;20245;-73
2023/08/11 10:25:46;;;;;;;2.47;1.98;;;;;;;;;;5034813;23;20231;-75
2023/08/11 10:28:51;;;;;;;1.60;1.50;;;;;;;;;;5022053;28;20205;-75
2023/08/11 10:31:57;;;;;;;2.42;1.85;;;;;;;;;;5053434;28;20212;-75
2023/08/11 10:35:06;;;;;;;2.17;1.85;;;;;;;;;;5042318;28;20643;-73
2023/08/11 10:38:10;;;;;;;2.72;1.90;;;;;;;;;;5052775;28;20189;-73
2023/08/11 10:41:18;;;;;;;2.20;1.80;;;;;;;;;;5053159;28;20215;-73
2023/08/11 10:44:27;;;;;;;2.15;1.67;;;;;;;;;;5054412;28;20651;-73
2023/08/11 10:47:31;;;;;;;4.07;2.17;;;;;;;;;;5055061;28;20184;-73
2023/08/11 10:50:37;;;;;;;3.28;1.80;;;;;;;;;;5040294;28;20185;-73
2023/08/11 10:53:41;;;;;;;5.43;2.00;;;;;;;;;;5054792;28;20655;-73
2023/08/11 10:56:46;;;;;;;2.17;1.92;;;;;;;;;;5054441;28;20181;-73
2023/08/11 10:59:50;;;;;;;5.88;2.35;;;;;;;;;;5035153;28;20188;-73
2023/08/11 11:02:55;;;;;;;7.90;2.30;;;;;;;;;;5041665;28;20200;-73
2023/08/11 11:06:04;;;;;;;3.15;2.00;;;;;;;;;;5040834;28;20196;-74
2023/08/11 11:09:08;;;;;;;2.22;1.98;;;;;;;;;;5042594;28;20204;-73
2023/08/11 11:12:14;;;;;;;13.70;3.42;;;;;;;;;;5054692;28;20220;-73
2023/08/11 11:15:18;;;;;;;3.90;2.03;;;;;;;;;;5042396;28;20643;-73
2023/08/11 11:18:22;;;;;;;29.30;4.28;;;;;;;;;;5054672;28;20180;-73
2023/08/11 11:21:26;;;;;;;3.25;2.10;;;;;;;;;;5054565;28;20215;-73
2023/08/11 11:24:31;;;;;;;3.30;1.90;;;;;;;;;;5054791;28;20639;-74
2023/08/11 11:27:42;;;;;;;5.13;2.10;;;;;;;;;;5042245;28;20181;-73
2023/08/11 11:30:46;;;;;;;3.95;1.85;;;;;;;;;;5054396;28;20225;-74
2023/08/11 11:33:51;;;;;;;2.50;2.30;;;;;;;;;;5042192;28;20188;-73
2023/08/11 11:36:55;;;;;;;8.40;2.70;;;;;;;;;;5042043;28;20188;-72
2023/08/11 11:40:04;;;;;;;2.75;2.55;;;;;;;;;;5054183;28;20187;-73
2023/08/11 11:43:10;;;;;;;4.60;2.35;;;;;;;;;;5054184;28;20522;-73
2023/08/11 11:46:18;;;;;;;2.25;1.85;;;;;;;;;;5042088;28;20185;-73
2023/08/11 11:49:22;;;;;;;2.17;1.90;;;;;;;;;;5041780;28;20552;-74
2023/08/11 11:52:27;;;;;;;2.90;2.55;;;;;;;;;;5053942;28;20216;-75
2023/08/11 11:55:31;;;;;;;8.13;2.20;;;;;;;;;;5054182;28;20176;-75
2023/08/11 11:58:38;;;;;;;3.67;2.35;;;;;;;;;;5054041;28;20176;-75
2023/08/11 12:01:42;;;;;;;1.88;1.63;;;;;;;;;;5052849;28;20563;-75
2023/08/11 12:04:47;;;;;;;2.55;1.85;;;;;;;;;;5053840;28;20181;-75
2023/08/11 12:07:51;;;;;;;6.68;2.47;;;;;;;;;;5041445;28;20172;-74
2023/08/11 12:10:55;;;;;;;3.70;2.00;;;;;;;;;;5053579;28;20227;-75
2023/08/11 12:14:00;;;;;;;3.97;1.85;;;;;;;;;;5041345;28;20200;-75
2023/08/11 12:17:04;;;;;;;2.30;2.10;;;;;;;;;;5041438;28;20189;-75
2023/08/11 12:20:10;;;;;;;2.22;2.03;;;;;;;;;;5053647;28;20177;-75
2023/08/11 12:23:14;;;;;;;2.80;2.50;;;;;;;;;;5053444;28;20192;-75
2023/08/11 12:26:18;;;;;;;2.22;2.03;;;;;;;;;;5053251;28;20204;-75
2023/08/11 12:29:22;;;;;;;2.77;2.17;;;;;;;;;;5053124;28;20717;-75
2023/08/11 12:32:26;;;;;;;2.58;1.75;;;;;;;;;;5053257;28;20211;-73
2023/08/11 12:35:31;;;;;;;2.53;2.30;;;;;;;;;;5052886;28;20688;-73
2023/08/11 12:38:35;;;;;;;2.70;2.40;;;;;;;;;;5053206;28;20547;-73
2023/08/11 12:41:40;;;;;;;6.90;3.80;;;;;;;;;;5053079;28;20560;-73
2023/08/11 12:44:44;;;;;;;26.15;11.55;;;;;;;;;;5053255;28;20180;-72
2023/08/11 12:47:48;;;;;;;3.85;1.98;;;;;;;;;;5040865;28;20189;-73
2023/08/11 12:50:52;;;;;;;2.85;1.88;;;;;;;;;;5052836;28;20219;-74
2023/08/11 12:53:56;;;;;;;20.23;9.38;;;;;;;;;;5053165;28;20184;-73
2023/08/11 12:57:00;;;;;;;3.28;2.08;;;;;;;;;;5052925;28;20173;-73
2023/08/11 13:00:09;;;;;;;2.10;1.90;;;;;;;;;;5052718;28;20191;-73
2023/08/11 13:03:14;;;;;;;4.55;1.83;;;;;;;;;;5040818;28;20185;-73
2023/08/11 13:06:18;;;;;;;2.33;2.03;;;;;;;;;;5040743;28;20181;-73
2023/08/11 13:09:22;;;;;;;2.33;1.85;;;;;;;;;;5052774;28;20575;-73
2023/08/11 13:12:26;;;;;;;2.75;1.98;;;;;;;;;;5040432;28;20212;-73
2023/08/11 13:15:31;;;;;;;3.33;1.83;;;;;;;;;;5040631;28;20185;-73
2023/08/11 13:18:35;;;;;;;2.28;1.75;;;;;;;;;;5040607;28;20188;-73
2023/08/11 13:21:39;;;;;;;1.88;1.67;;;;;;;;;;5052740;28;20207;-73
2023/08/11 13:24:43;;;;;;;1.60;1.50;;;;;;;;;;5052802;28;20180;-74
2023/08/11 13:27:48;;;;;;;4.78;1.65;;;;;;;;;;5052861;28;20184;-73
2023/08/11 13:30:52;;;;;;;2.28;1.67;;;;;;;;;;5052461;28;20228;-73
2023/08/11 13:33:55;;;;;;;2.20;1.75;;;;;;;;;;5052704;28;20177;-73
2023/08/11 13:37:00;;;;;;;1.85;1.52;;;;;;;;;;5040255;28;20180;-73
2023/08/11 13:40:08;;;;;;;3.30;1.67;;;;;;;;;;5040230;28;20172;-73
2023/08/11 13:43:12;;;;;;;1.95;1.70;;;;;;;;;;5040345;28;20528;-73
2023/08/11 13:46:16;;;;;;;4.68;1.75;;;;;;;;;;5052553;28;20176;-73
2023/08/11 13:49:20;;;;;;;4.25;1.80;;;;;;;;;;5052375;28;20531;-73
2023/08/11 13:52:24;;;;;;;6.45;1.80;;;;;;;;;;5052365;28;20211;-73
2023/08/11 13:55:28;;;;;;;1.90;1.60;;;;;;;;;;5040324;28;20643;-73
2023/08/11 13:58:33;;;;;;;2.67;1.80;;;;;;;;;;5040057;28;20184;-73
2023/08/11 14:01:37;;;;;;;1.77;1.60;;;;;;;;;;5040345;28;20216;-73
2023/08/11 14:04:41;;;;;;;3.78;1.50;;;;;;;;;;5052435;28;20184;-73
2023/08/11 14:07:49;;;;;;;2.30;1.63;;;;;;;;;;5052233;28;20520;-73
2023/08/11 14:10:53;;;;;;;2.67;1.67;;;;;;;;;;5028506;28;20228;-73
2023/08/11 14:13:59;;;;;;;2.92;1.83;;;;;;;;;;5028748;28;20180;-73
2023/08/11 14:17:04;;;;;;;2.20;1.45;;;;;;;;;;5040051;28;20176;-73
2023/08/11 14:20:09;;;;;;;1.67;1.40;;;;;;;;;;5052169;28;20169;-73
2023/08/11 14:23:13;;;;;;;1.80;1.70;;;;;;;;;;5039944;28;20196;-73
2023/08/11 14:26:17;;;;;;;2.53;1.48;;;;;;;;;;5055405;28;20204;-73
2023/08/11 14:29:21;;;;;;;1.98;1.50;;;;;;;;;;5043310;28;20523;-74
2023/08/11 14:32:25;;;;;;;1.80;1.65;;;;;;;;;;5055477;28;20216;-73
2023/08/11 14:35:30;;;;;;;2.45;1.40;;;;;;;;;;5043380;28;20176;-73
2023/08/11 14:38:34;;;;;;;2.05;1.85;;;;;;;;;;5055527;28;20176;-73
2023/08/11 14:41:38;;;;;;;1.67;1.50;;;;;;;;;;5043000;28;20216;-73
2023/08/11 14:44:42;;;;;;;2.92;1.67;;;;;;;;;;5055591;28;20184;-73
2023/08/11 14:47:46;;;;;;;5.20;2.25;;;;;;;;;;5055330;28;20176;-72
2023/08/11 14:50:50;;;;;;;2.53;1.77;;;;;;;;;;5042908;28;20232;-71
2023/08/11 14:53:54;;;;;;;2.08;1.88;;;;;;;;;;5055321;28;20184;-73
2023/08/11 14:56:58;;;;;;;1.83;1.63;;;;;;;;;;5043499;28;20176;-72
2023/08/11 15:00:04;;;;;;;2.17;1.98;;;;;;;;;;5055344;28;20196;-72
2023/08/11 15:03:09;;;;;;;2.47;1.98;;;;;;;;;;5042946;28;20176;-72
2023/08/11 15:06:13;;;;;;;5.97;2.25;;;;;;;;;;5042807;28;20185;-72
2023/08/11 15:09:17;;;;;;;3.17;1.92;;;;;;;;;;5054921;28;20184;-71
2023/08/11 15:12:22;;;;;;;1.70;1.52;;;;;;;;;;5042578;28;20216;-72
2023/08/11 15:15:27;;;;;;;3.13;2.00;;;;;;;;;;5054918;28;20526;-72
2023/08/11 15:18:31;;;;;;;1.70;1.60;;;;;;;;;;5054909;28;20176;-72
2023/08/11 15:21:35;;;;;;;3.08;2.03;;;;;;;;;;5054841;28;20211;-72
2023/08/11 15:24:39;;;;;;;2.85;1.60;;;;;;;;;;5042454;28;20185;-72
2023/08/11 15:27:43;;;;;;;3.17;1.83;;;;;;;;;;5042282;28;20168;-72
2023/08/11 15:30:47;;;;;;;3.97;1.83;;;;;;;;;;5042218;28;20570;-72
2023/08/11 15:33:51;;;;;;;2.42;1.77;;;;;;;;;;5054638;28;20180;-72
2023/08/11 15:36:55;;;;;;;1.92;1.70;;;;;;;;;;5042322;28;20184;-72
2023/08/11 15:40:00;;;;;;;1.70;1.60;;;;;;;;;;5054382;28;20169;-73
2023/08/11 15:43:05;;;;;;;2.05;1.60;;;;;;;;;;5054375;28;20635;-72
2023/08/11 15:46:10;;;;;;;3.92;1.88;;;;;;;;;;5054258;28;20185;-75
2023/08/11 15:49:14;;;;;;;6.97;2.20;;;;;;;;;;5030722;28;20181;-75
2023/08/11 15:52:18;;;;;;;3.63;1.70;;;;;;;;;;5030539;28;20208;-76
2023/08/11 15:55:22;;;;;;;3.97;1.98;;;;;;;;;;5030492;28;20185;-75
2023/08/11 15:58:26;;;;;;;2.65;1.65;;;;;;;;;;5054222;28;20180;-75
2023/08/11 16:01:30;;;;;;;1.67;1.58;;;;;;;;;;5053884;28;20212;-75
2023/08/11 16:04:34;;;;;;;4.35;1.70;;;;;;;;;;5030853;28;20504;-73
2023/08/11 16:07:38;;;;;;;4.43;1.70;;;;;;;;;;5041767;28;20526;-73
2023/08/11 16:10:44;;;;;;;2.83;1.60;;;;;;;;;;5054462;28;20247;-73
2023/08/11 16:13:48;;;;;;;2.10;1.65;;;;;;;;;;5053995;28;20180;-74
2023/08/11 16:16:52;;;;;;;5.60;2.05;;;;;;;;;;5054299;28;20176;-75
2023/08/11 16:19:56;;;;;;;3.25;2.05;;;;;;;;;;5053666;28;20184;-75
2023/08/11 16:23:01;;;;;;;3.45;1.90;;;;;;;;;;5053493;28;20184;-75
2023/08/11 16:26:05;;;;;;;3.08;1.70;;;;;;;;;;5055899;22;20228;-73
2023/08/11 16:29:09;;;;;;;2.05;1.80;;;;;;;;;;5053543;28;20666;-73
2023/08/11 16:32:13;;;;;;;15.88;1.98;;;;;;;;;;5049727;28;20220;-74
2023/08/11 16:35:17;;;;;;;2.03;1.65;;;;;;;;;;5051937;28;20187;-73
2023/08/11 16:38:21;;;;;;;2.85;1.65;;;;;;;;;;5052351;28;20194;-73
2023/08/11 16:41:25;;;;;;;3.05;2.35;;;;;;;;;;5052684;28;20218;-73
2023/08/11 16:44:29;;;;;;;3.55;2.20;;;;;;;;;;5050654;28;20204;-73
2023/08/11 16:47:33;;;;;;;4.65;2.03;;;;;;;;;;5050819;28;20200;-73
2023/08/11 16:50:37;;;;;;;2.47;1.67;;;;;;;;;;5051542;28;20221;-73
2023/08/11 16:53:42;;;;;;;1.98;1.70;;;;;;;;;;5039874;28;20198;-73
2023/08/11 16:56:45;;;;;;;2.38;1.90;;;;;;;;;;5037695;28;20183;-73
2023/08/11 16:59:50;;;;;;;3.10;2.22;;;;;;;;;;5038222;28;20184;-73
2023/08/11 17:02:54;;;;;;;4.60;1.90;;;;;;;;;;5033065;28;20175;-73
2023/08/11 17:05:58;;;;;;;3.92;2.05;;;;;;;;;;5032927;28;20645;-74
2023/08/11 17:09:04;;;;;;;2.72;1.55;;;;;;;;;;5020670;28;20545;-74
2023/08/11 17:12:09;;;;;;;2.17;1.98;;;;;;;;;;5032801;28;20226;-74
2023/08/11 17:15:13;;;;;;;3.95;2.45;;;;;;;;;;5032858;28;20624;-74
2023/08/11 17:18:17;;;;;;;2.42;1.75;;;;;;;;;;5033207;28;20184;-74
2023/08/11 17:21:21;;;;;;;3.38;1.92;;;;;;;;;;5032009;28;20219;-75
2023/08/11 17:24:25;;;;;;;6.25;1.80;;;;;;;;;;5020946;28;20183;-73
2023/08/11 17:27:29;;;;;;;7.20;2.60;;;;;;;;;;5032698;28;20215;-73
2023/08/11 17:30:33;;;;;;;5.15;2.28;;;;;;;;;;5032607;28;20215;-74
2023/08/11 17:33:37;;;;;;;3.72;1.65;;;;;;;;;;5032798;28;20179;-74
2023/08/11 17:36:42;;;;;;;4.53;2.00;;;;;;;;;;5032744;28;20184;-74
2023/08/11 17:39:46;;;;;;;3.45;1.67;;;;;;;;;;5032985;28;20183;-73
2023/08/11 17:42:50;;;;;;;3.90;1.85;;;;;;;;;;5033027;28;20619;-73
2023/08/11 17:45:54;;;;;;;3.63;1.90;;;;;;;;;;5033145;28;20182;-74
2023/08/11 17:48:58;;;;;;;1.98;1.60;;;;;;;;;;5032579;28;20197;-73
2023/08/11 17:52:03;;;;;;;3.08;1.95;;;;;;;;;;5032434;28;20224;-74
2023/08/11 17:55:07;;;;;;;3.50;2.03;;;;;;;;;;5032514;28;20197;-74
2023/08/11 17:58:11;;;;;;;4.55;1.90;;;;;;;;;;5031946;28;20203;-74
2023/08/11 18:01:15;;;;;;;2.03;1.67;;;;;;;;;;5035988;28;20686;-74
2023/08/11 18:04:20;;;;;;;2.55;1.77;;;;;;;;;;5036238;28;20192;-74
2023/08/11 18:07:24;;;;;;;9.43;2.00;;;;;;;;;;5023996;28;20200;-73
2023/08/11 18:10:27;;;;;;;2.28;1.75;;;;;;;;;;5036341;28;20510;-74
2023/08/11 18:13:32;;;;;;;3.77;1.83;;;;;;;;;;5024192;28;20174;-74
2023/08/11 18:16:37;;;;;;;8.63;2.22;;;;;;;;;;5023837;28;20184;-74
2023/08/11 18:19:41;;;;;;;12.13;2.42;;;;;;;;;;5036225;28;20194;-74
2023/08/11 18:22:45;;;;;;;7.07;2.53;;;;;;;;;;5023966;28;20550;-74
2023/08/11 18:25:49;;;;;;;5.63;2.20;;;;;;;;;;5023898;28;20186;-74
2023/08/11 18:28:53;;;;;;;4.00;1.60;;;;;;;;;;5035852;28;20198;-74